Time;durP1;ratioP1;P1;durP2;ratioP2;P2;SDS_P1;SDS_P2;PMS_P1;PMS_P2;Temp;Humidity;BMP_temperature;BMP_pressure;BME280_temperature;BME280_humidity;BME280_pressure;Samples;Min_cycle;Max_cycle;Signal;HPM_P1;HPM_P2
2022/10/16 00:01:30;;;;;;;;;;;12.00;99.90;;;;;;6209951;23;20361;-74
2022/10/16 00:03:56;;;;;;;;;;;12.00;99.90;;;;;;6220599;23;19915;-73
2022/10/16 00:06:22;;;;;;;;;;;12.00;99.90;;;;;;6220136;23;19915;-74
2022/10/16 00:08:48;;;;;;;;;;;12.10;99.90;;;;;;6220166;23;19954;-73
2022/10/16 00:11:14;;;;;;;;;;;12.10;99.90;;;;;;6220543;23;19937;-74
2022/10/16 00:13:40;;;;;;;;;;;12.10;99.90;;;;;;6220648;23;20322;-74
2022/10/16 00:16:06;;;;;;;;;;;12.10;99.90;;;;;;6220497;23;19918;-74
2022/10/16 00:18:32;;;;;;;;;;;12.10;99.90;;;;;;6246935;23;19947;-73
2022/10/16 00:21:05;;;;;;;;;;;12.10;99.90;;;;;;6195100;23;20341;-74
2022/10/16 00:23:32;;;;;;;;;;;12.10;99.90;;;;;;6220536;23;19916;-74
2022/10/16 00:25:58;;;;;;;;;;;12.00;99.90;;;;;;6220387;23;20015;-73
2022/10/16 00:28:24;;;;;;;;;;;12.00;99.90;;;;;;6220197;23;19989;-73
2022/10/16 00:30:49;;;;;;;;;;;12.00;99.90;;;;;;6220269;23;20314;-75
2022/10/16 00:33:18;;;;;;;;;;;12.00;99.90;;;;;;6220415;23;19962;-75
2022/10/16 00:35:44;;;;;;;;;;;11.90;99.90;;;;;;6195285;23;19920;-73
2022/10/16 00:38:09;;;;;;;;;;;11.90;99.90;;;;;;6220159;23;19954;-74
2022/10/16 00:40:35;;;;;;;;;;;12.00;99.90;;;;;;6246991;22;19921;-76
2022/10/16 00:43:01;;;;;;;;;;;12.00;99.90;;;;;;6195620;23;20314;-74
2022/10/16 00:45:26;;;;;;;;;;;11.90;99.90;;;;;;6220326;23;19969;-74
2022/10/16 00:47:53;;;;;;;;;;;11.90;99.90;;;;;;6220133;23;19927;-74
2022/10/16 00:50:35;;;;;;;;;;;11.90;99.90;;;;;;6195004;23;19942;-74
2022/10/16 00:53:01;;;;;;;;;;;11.90;99.90;;;;;;6219934;23;19920;-73
2022/10/16 00:55:35;;;;;;;;;;;12.00;99.90;;;;;;6220189;23;19939;-74
2022/10/16 00:58:00;;;;;;;;;;;12.00;99.90;;;;;;6219690;23;19961;-75
2022/10/16 01:00:26;;;;;;;;;;;12.00;99.90;;;;;;6164468;23;20272;-75
2022/10/16 01:02:59;;;;;;;;;;;12.00;99.90;;;;;;6190235;23;20489;-74
2022/10/16 01:05:48;;;;;;;;;;;12.10;99.90;;;;;;6189254;23;20104;-75
2022/10/16 01:08:31;;;;;;;;;;;12.00;99.90;;;;;;6189409;23;19920;-76
2022/10/16 01:11:01;;;;;;;;;;;12.00;99.90;;;;;;6214844;23;20353;-73
2022/10/16 01:13:29;;;;;;;;;;;12.10;99.90;;;;;;6189666;23;19916;-73
2022/10/16 01:15:58;;;;;;;;;;;12.10;99.90;;;;;;6164835;23;20381;-73
2022/10/16 01:18:30;;;;;;;;;;;12.20;99.90;;;;;;6189897;23;19994;-75
2022/10/16 01:21:08;;;;;;;;;;;12.20;99.90;;;;;;6189736;23;19920;-74
2022/10/16 01:23:48;;;;;;;;;;;12.30;99.90;;;;;;6165036;23;19994;-76
2022/10/16 01:26:30;;;;;;;;;;;12.30;99.90;;;;;;6192492;23;19959;-74
2022/10/16 01:29:16;;;;;;;;;;;12.30;99.90;;;;;;6168237;23;19916;-73
2022/10/16 01:31:44;;;;;;;;;;;12.40;99.90;;;;;;6193654;23;19916;-75
2022/10/16 01:34:14;;;;;;;;;;;12.40;99.90;;;;;;6218296;22;19928;-74
2022/10/16 01:36:42;;;;;;;;;;;12.40;99.90;;;;;;6217868;22;19911;-74
2022/10/16 01:39:10;;;;;;;;;;;12.50;99.90;;;;;;6193262;22;19908;-73
2022/10/16 01:41:47;;;;;;;;;;;12.40;99.90;;;;;;6185086;23;19922;-75
2022/10/16 01:44:19;;;;;;;;;;;12.60;99.90;;;;;;6164777;23;19915;-74
2022/10/16 01:46:48;;;;;;;;;;;12.50;99.90;;;;;;6189671;23;19970;-74
2022/10/16 01:49:14;;;;;;;;;;;12.50;99.90;;;;;;6189707;23;19947;-72
2022/10/16 01:51:41;;;;;;;;;;;12.50;99.90;;;;;;6190327;23;19951;-74
2022/10/16 01:54:11;;;;;;;;;;;12.50;99.90;;;;;;6187733;23;19916;-73
2022/10/16 01:56:37;;;;;;;;;;;12.60;99.90;;;;;;6213639;23;19923;-74
2022/10/16 01:59:05;;;;;;;;;;;12.60;99.90;;;;;;6189455;23;19920;-74
2022/10/16 02:01:35;;;;;;;;;;;12.60;99.90;;;;;;6208673;23;20340;-73
2022/10/16 02:04:04;;;;;;;;;;;12.60;99.90;;;;;;6217796;23;19919;-74
2022/10/16 02:06:38;;;;;;;;;;;12.70;99.90;;;;;;6218278;23;19915;-75
2022/10/16 02:09:06;;;;;;;;;;;12.50;99.90;;;;;;6219138;23;19991;-73
2022/10/16 02:11:32;;;;;;;;;;;12.40;99.90;;;;;;6193126;23;19955;-74
2022/10/16 02:14:07;;;;;;;;;;;12.40;99.90;;;;;;6243798;23;19915;-74
2022/10/16 02:16:40;;;;;;;;;;;12.50;99.90;;;;;;6218448;23;19919;-74
2022/10/16 02:19:06;;;;;;;;;;;12.40;99.90;;;;;;6243887;23;19915;-73
2022/10/16 02:21:35;;;;;;;;;;;12.40;99.90;;;;;;6218227;23;19997;-74
2022/10/16 02:24:19;;;;;;;;;;;12.30;99.90;;;;;;6218256;23;19916;-72
2022/10/16 02:26:48;;;;;;;;;;;12.30;99.90;;;;;;6218394;23;19916;-72
2022/10/16 02:29:16;;;;;;;;;;;12.30;99.90;;;;;;6218236;23;20377;-74
2022/10/16 02:31:45;;;;;;;;;;;12.20;99.90;;;;;;6193101;23;20279;-74
2022/10/16 02:34:12;;;;;;;;;;;12.20;99.90;;;;;;6243548;23;19916;-74
2022/10/16 02:36:39;;;;;;;;;;;12.20;99.90;;;;;;6218026;23;19916;-75
2022/10/16 02:39:05;;;;;;;;;;;12.20;99.90;;;;;;6219019;23;19916;-74
2022/10/16 02:41:31;;;;;;;;;;;12.10;99.90;;;;;;6219074;23;19916;-73
2022/10/16 02:44:02;;;;;;;;;;;12.10;99.90;;;;;;6219616;23;19923;-75
2022/10/16 02:46:28;;;;;;;;;;;12.10;99.90;;;;;;6219564;23;19915;-75
2022/10/16 02:48:53;;;;;;;;;;;12.10;99.90;;;;;;6219503;23;20294;-75
2022/10/16 02:51:21;;;;;;;;;;;12.00;99.90;;;;;;6219244;23;19999;-75
2022/10/16 02:53:47;;;;;;;;;;;12.00;99.90;;;;;;6194778;23;19911;-74
2022/10/16 02:56:13;;;;;;;;;;;11.90;99.90;;;;;;6219630;23;19947;-74
2022/10/16 02:58:38;;;;;;;;;;;11.80;99.90;;;;;;6219627;23;19916;-73
2022/10/16 03:01:14;;;;;;;;;;;11.90;99.90;;;;;;6149030;23;1412152;-73
2022/10/16 03:03:42;;;;;;;;;;;11.90;99.90;;;;;;6181688;23;19912;-73
2022/10/16 03:06:10;;;;;;;;;;;11.90;99.90;;;;;;6221405;23;19912;-74
2022/10/16 03:08:35;;;;;;;;;;;11.80;99.90;;;;;;6221010;23;19946;-73
2022/10/16 03:11:09;;;;;;;;;;;11.80;99.90;;;;;;6221392;23;19911;-74
2022/10/16 03:13:38;;;;;;;;;;;11.80;99.90;;;;;;6222024;23;19986;-74
2022/10/16 03:16:03;;;;;;;;;;;11.70;99.90;;;;;;6221183;23;19947;-74
2022/10/16 03:18:31;;;;;;;;;;;11.80;99.90;;;;;;6248213;23;19912;-74
2022/10/16 03:20:59;;;;;;;;;;;11.80;99.90;;;;;;6196128;23;19919;-74
2022/10/16 03:23:30;;;;;;;;;;;11.80;99.90;;;;;;6248113;23;19959;-74
2022/10/16 03:25:58;;;;;;;;;;;11.80;99.90;;;;;;6222368;23;19912;-76
2022/10/16 03:28:24;;;;;;;;;;;11.70;99.90;;;;;;6196040;23;20230;-75
2022/10/16 03:30:50;;;;;;;;;;;11.70;99.90;;;;;;6221108;23;19951;-74
2022/10/16 03:33:20;;;;;;;;;;;11.70;99.90;;;;;;6247366;23;20318;-73
2022/10/16 03:36:02;;;;;;;;;;;11.70;99.90;;;;;;6220784;23;20311;-75
2022/10/16 03:38:34;;;;;;;;;;;11.70;99.90;;;;;;6222019;23;20383;-74
2022/10/16 03:41:07;;;;;;;;;;;11.70;99.90;;;;;;6219302;23;20033;-74
2022/10/16 03:43:33;;;;;;;;;;;11.70;99.90;;;;;;6244690;23;19924;-74
2022/10/16 03:46:12;;;;;;;;;;;11.70;99.90;;;;;;6220888;23;19919;-74
2022/10/16 03:48:40;;;;;;;;;;;11.70;99.90;;;;;;6246277;23;19916;-74
2022/10/16 03:51:08;;;;;;;;;;;11.60;99.90;;;;;;6220210;23;20280;-74
2022/10/16 03:53:39;;;;;;;;;;;11.60;99.90;;;;;;6195856;23;19915;-73
2022/10/16 03:56:10;;;;;;;;;;;11.70;99.90;;;;;;6245673;23;19922;-74
2022/10/16 03:58:38;;;;;;;;;;;11.70;99.90;;;;;;6220951;23;19915;-74
2022/10/16 04:01:05;;;;;;;;;;;11.80;99.90;;;;;;6212048;23;19987;-74
2022/10/16 04:03:34;;;;;;;;;;;11.80;99.90;;;;;;6190112;23;19916;-73
2022/10/16 04:06:02;;;;;;;;;;;11.80;99.90;;;;;;6190611;23;19915;-73
2022/10/16 04:08:34;;;;;;;;;;;11.90;99.90;;;;;;6191176;23;19923;-75
2022/10/16 04:11:05;;;;;;;;;;;12.00;99.90;;;;;;6215552;23;20340;-75
2022/10/16 04:13:30;;;;;;;;;;;12.00;99.90;;;;;;6190253;23;20230;-75
2022/10/16 04:15:56;;;;;;;;;;;12.10;99.90;;;;;;6163964;23;19913;-73
2022/10/16 04:18:27;;;;;;;;;;;12.10;99.90;;;;;;6216723;23;20227;-73
2022/10/16 04:20:53;;;;;;;;;;;12.10;99.90;;;;;;6216380;23;20009;-76
2022/10/16 04:23:18;;;;;;;;;;;12.10;99.90;;;;;;6190206;23;19943;-74
2022/10/16 04:25:53;;;;;;;;;;;12.00;99.90;;;;;;6190577;23;19916;-75
2022/10/16 04:28:22;;;;;;;;;;;12.10;99.90;;;;;;6190086;23;19919;-74
2022/10/16 04:30:51;;;;;;;;;;;12.10;99.90;;;;;;6190276;23;19982;-74
2022/10/16 04:33:22;;;;;;;;;;;12.20;99.90;;;;;;6165164;23;19958;-74
2022/10/16 04:35:47;;;;;;;;;;;12.20;99.90;;;;;;6189132;23;19915;-74
2022/10/16 04:38:16;;;;;;;;;;;12.20;99.90;;;;;;6190363;23;19920;-74
2022/10/16 04:40:44;;;;;;;;;;;12.20;99.90;;;;;;6189675;23;19919;-75
2022/10/16 04:43:18;;;;;;;;;;;12.20;99.90;;;;;;6215493;23;19923;-74
2022/10/16 04:45:54;;;;;;;;;;;12.10;99.90;;;;;;6165058;23;20371;-74
2022/10/16 04:48:28;;;;;;;;;;;11.90;99.90;;;;;;6189902;23;19966;-76
2022/10/16 04:51:00;;;;;;;;;;;12.30;99.90;;;;;;6216197;23;20362;-75
2022/10/16 04:53:34;;;;;;;;;;;12.00;99.90;;;;;;6189938;23;19912;-73
2022/10/16 04:56:06;;;;;;;;;;;12.10;99.90;;;;;;6189376;23;19920;-75
2022/10/16 04:58:34;;;;;;;;;;;12.00;99.90;;;;;;6188946;23;19915;-76
2022/10/16 05:01:02;;;;;;;;;;;12.00;99.90;;;;;;6170694;23;20107;-75
2022/10/16 05:03:28;;;;;;;;;;;12.20;99.90;;;;;;6244247;23;19918;-75
2022/10/16 05:05:57;;;;;;;;;;;12.00;99.90;;;;;;6216442;23;19912;-74
2022/10/16 05:08:34;;;;;;;;;;;12.00;99.90;;;;;;6221492;23;19918;-75
2022/10/16 05:11:12;;;;;;;;;;;;;;;;;;;;;
2022/10/16 05:13:44;;;;;;;;;;;12.00;99.90;;;;;;6220344;23;20326;-74
2022/10/16 05:16:27;;;;;;;;;;;12.00;99.90;;;;;;6219811;23;19933;-74
2022/10/16 05:18:56;;;;;;;;;;;12.00;99.90;;;;;;6217987;23;20345;-75
2022/10/16 05:21:32;;;;;;;;;;;11.80;99.90;;;;;;6219147;23;19915;-74
2022/10/16 05:24:18;;;;;;;;;;;12.00;99.90;;;;;;6219021;23;19990;-75
2022/10/16 05:27:09;;;;;;;;;;;;;;;;;;;;;
2022/10/16 05:29:52;;;;;;;;;;;12.00;99.90;;;;;;6220169;23;19911;-75
2022/10/16 05:32:18;;;;;;;;;;;12.00;99.90;;;;;;6193269;23;19943;-74
2022/10/16 05:34:46;;;;;;;;;;;12.00;99.90;;;;;;6220030;23;19915;-76
2022/10/16 05:37:25;;;;;;;;;;;11.90;99.90;;;;;;6222630;23;20014;-74
2022/10/16 05:40:09;;;;;;;;;;;;;;;;;;;;;
2022/10/16 05:45:33;;;;;;;;;;;11.80;99.90;;;;;;6194114;23;19943;-73
2022/10/16 05:48:15;;;;;;;;;;;11.70;99.90;;;;;;6221107;23;19982;-74
2022/10/16 05:53:36;;;;;;;;;;;11.90;99.90;;;;;;6204253;23;19919;-72
2022/10/16 05:59:38;;;;;;;;;;;11.60;99.90;;;;;;6101108;23;20332;-73
2022/10/16 06:02:26;;;;;;;;;;;11.50;99.90;;;;;;6093664;23;19941;-73
2022/10/16 06:05:16;;;;;;;;;;;11.40;99.90;;;;;;6096853;23;19912;-76
2022/10/16 06:07:50;;;;;;;;;;;11.60;99.90;;;;;;6099448;23;19924;-74
2022/10/16 06:10:22;;;;;;;;;;;11.50;99.90;;;;;;6125210;23;19916;-76
2022/10/16 06:12:54;;;;;;;;;;;11.50;99.90;;;;;;6189545;23;19918;-74
2022/10/16 06:15:38;;;;;;;;;;;;;;;;;;;;;
2022/10/16 06:18:12;;;;;;;;;;;11.60;99.90;;;;;;6189871;23;19959;-75
2022/10/16 06:20:48;;;;;;;;;;;11.50;99.90;;;;;;6167008;23;20235;-74
2022/10/16 06:23:22;;;;;;;;;;;11.50;99.90;;;;;;6191234;23;19923;-74
2022/10/16 06:25:51;;;;;;;;;;;11.50;99.90;;;;;;6191230;23;19974;-74
2022/10/16 06:28:33;;;;;;;;;;;11.50;99.90;;;;;;6190679;23;19921;-74
2022/10/16 06:31:03;;;;;;;;;;;11.60;99.90;;;;;;6191927;23;19916;-74
2022/10/16 06:33:39;;;;;;;;;;;11.60;99.90;;;;;;6185767;23;19912;-74
2022/10/16 06:36:19;;;;;;;;;;;11.70;99.90;;;;;;6167067;23;19912;-74
2022/10/16 06:39:01;;;;;;;;;;;11.80;99.90;;;;;;6190865;23;20239;-73
2022/10/16 06:41:38;;;;;;;;;;;11.80;99.90;;;;;;6190826;23;19982;-73
2022/10/16 06:44:16;;;;;;;;;;;11.80;99.90;;;;;;6190928;23;20001;-74
2022/10/16 06:46:51;;;;;;;;;;;11.80;99.90;;;;;;6189021;23;20319;-76
2022/10/16 06:49:34;;;;;;;;;;;11.80;99.90;;;;;;6189419;23;19923;-74
2022/10/16 06:52:05;;;;;;;;;;;11.70;99.90;;;;;;6166199;23;19916;-75
2022/10/16 06:54:34;;;;;;;;;;;11.70;99.90;;;;;;6191293;23;19992;-74
2022/10/16 06:57:02;;;;;;;;;;;11.80;99.90;;;;;;6166224;23;19916;-74
2022/10/16 06:59:40;;;;;;;;;;;11.80;99.90;;;;;;6190778;23;19947;-76
2022/10/16 07:02:07;;;;;;;;;;;11.90;99.90;;;;;;6207435;23;19998;-74
2022/10/16 07:04:35;;;;;;;;;;;11.90;99.90;;;;;;6220658;23;19911;-74
2022/10/16 07:07:03;;;;;;;;;;;12.00;99.90;;;;;;6195995;23;19965;-73
2022/10/16 07:09:32;;;;;;;;;;;11.90;99.90;;;;;;6221060;23;19911;-73
2022/10/16 07:12:06;;;;;;;;;;;11.90;99.90;;;;;;6220042;23;19919;-72
2022/10/16 07:14:37;;;;;;;;;;;12.00;99.90;;;;;;6196756;23;19923;-75
2022/10/16 07:17:27;;;;;;;;;;;12.00;99.90;;;;;;6210832;23;19915;-74
2022/10/16 07:19:58;;;;;;;;;;;11.90;99.90;;;;;;6220628;23;19918;-73
2022/10/16 07:38:32;;;;;;;;;;;12.70;99.90;;;;;;6199948;23;19962;-73
2022/10/16 07:44:40;;;;;;;;;;;12.80;99.90;;;;;;6246999;23;19991;-74
2022/10/16 08:07:18;;;;;;;;;;;12.70;99.90;;;;;;6273304;22;19970;-77
2022/10/16 08:09:51;;;;;;;;;;;12.70;99.90;;;;;;6281555;22;19985;-73
2022/10/16 08:12:20;;;;;;;;;;;12.70;99.90;;;;;;6255973;22;19921;-74
2022/10/16 08:14:45;;;;;;;;;;;12.70;99.90;;;;;;6255709;22;19933;-74
2022/10/16 08:17:37;;;;;;;;;;;12.80;99.90;;;;;;6281610;22;19981;-72
2022/10/16 08:20:08;;;;;;;;;;;12.80;99.90;;;;;;6308780;22;20340;-73
2022/10/16 08:23:14;;;;;;;;;;;12.90;99.90;;;;;;6254043;22;19936;-73
2022/10/16 08:29:33;;;;;;;;;;;13.00;99.90;;;;;;6295785;22;19945;-70
2022/10/16 09:10:13;;;;;;;;;;;14.70;99.90;;;;;;6276521;22;19910;-80
2022/10/16 09:16:54;;;;;;;;;;;15.10;99.90;;;;;;6276998;22;19925;-74
2022/10/16 09:36:06;;;;;;;;;;;15.40;99.90;;;;;;6153892;23;19916;-74
2022/10/16 09:38:39;;;;;;;;;;;15.50;99.90;;;;;;6216469;23;19986;-72
2022/10/16 09:41:41;;;;;;;;;;;15.70;99.90;;;;;;6246476;22;20307;-79
2022/10/16 09:44:53;;;;;;;;;;;15.80;99.90;;;;;;6245209;23;19943;-74
2022/10/16 09:48:00;;;;;;;;;;;15.90;99.90;;;;;;6239176;22;19912;-76
2022/10/16 09:50:42;;;;;;;;;;;15.90;99.90;;;;;;6211175;23;19919;-76
2022/10/16 09:53:28;;;;;;;;;;;15.90;99.90;;;;;;6223785;23;19912;-75
2022/10/16 09:56:18;;;;;;;;;;;15.80;99.90;;;;;;6220151;23;19926;-75
2022/10/16 09:59:07;;;;;;;;;;;15.70;99.90;;;;;;6223021;23;19916;-75
2022/10/16 10:02:07;;;;;;;;;;;15.70;99.90;;;;;;6210452;23;20343;-74
2022/10/16 10:08:21;;;;;;;;;;;15.70;99.90;;;;;;6249116;23;19911;-75
2022/10/16 10:20:46;;;;;;;;;;;15.90;99.90;;;;;;6310955;22;19925;-78
2022/10/16 10:23:31;;;;;;;;;;;15.90;99.90;;;;;;6277912;22;20335;-75
2022/10/16 10:29:37;;;;;;;;;;;15.80;99.90;;;;;;6279847;22;19910;-75
2022/10/16 10:36:16;;;;;;;;;;;;;;;;;;;;;
2022/10/16 10:58:03;;;;;;;;;;;15.90;99.90;;;;;;6261285;22;19938;-77
2022/10/16 11:16:26;;;;;;;;;;;15.90;99.90;;;;;;6290853;22;19922;-67
2022/10/16 11:18:56;;;;;;;;;;;15.90;99.90;;;;;;6281184;22;19919;-73
2022/10/16 11:21:22;;;;;;;;;;;15.80;99.90;;;;;;6282265;22;19946;-71
2022/10/16 11:24:04;;;;;;;;;;;15.80;99.90;;;;;;6281996;22;19957;-74
2022/10/16 11:27:05;;;;;;;;;;;15.80;99.90;;;;;;6281840;22;19911;-74
2022/10/16 11:29:35;;;;;;;;;;;15.80;99.90;;;;;;6247146;22;19917;-74
2022/10/16 11:32:05;;;;;;;;;;;15.70;99.90;;;;;;6282687;22;19946;-71
2022/10/16 11:34:51;;;;;;;;;;;15.70;99.90;;;;;;6257414;22;19911;-69
2022/10/16 11:37:24;;;;;;;;;;;15.70;99.90;;;;;;6255714;22;19915;-74
2022/10/16 11:43:19;;;;;;;;;;;15.80;99.90;;;;;;6308680;22;19949;-71
2022/10/16 11:45:46;;;;;;;;;;;15.80;99.90;;;;;;6255219;22;19911;-72
2022/10/16 11:48:12;;;;;;;;;;;15.80;99.90;;;;;;6284553;22;19911;-72
2022/10/16 11:50:44;;;;;;;;;;;15.80;99.90;;;;;;6282228;22;19911;-71
2022/10/16 11:53:12;;;;;;;;;;;15.80;99.90;;;;;;6256297;22;20309;-71
2022/10/16 11:55:42;;;;;;;;;;;15.80;99.90;;;;;;6309301;22;20232;-71
2022/10/16 11:58:26;;;;;;;;;;;15.70;99.90;;;;;;6281351;22;19929;-71
2022/10/16 12:01:03;;;;;;;;;;;15.70;99.90;;;;;;6281643;22;19926;-71
2022/10/16 12:03:33;;;;;;;;;;;15.70;99.90;;;;;;6281364;22;19926;-71
2022/10/16 12:06:14;;;;;;;;;;;15.70;99.90;;;;;;6281975;22;19953;-71
2022/10/16 12:08:56;;;;;;;;;;;15.70;99.90;;;;;;6213135;23;19916;-70
2022/10/16 12:14:47;;;;;;;;;;;15.70;99.90;;;;;;6202613;23;19916;-70
2022/10/16 12:17:23;;;;;;;;;;;15.70;99.90;;;;;;6168795;23;20231;-69
2022/10/16 12:19:59;;;;;;;;;;;15.70;99.90;;;;;;6190324;23;19919;-69
2022/10/16 12:22:27;;;;;;;;;;;15.70;99.90;;;;;;6188799;23;20286;-68
2022/10/16 12:24:54;;;;;;;;;;;15.70;99.90;;;;;;6189307;23;19926;-68
2022/10/16 12:27:23;;;;;;;;;;;15.70;99.90;;;;;;6188986;23;19966;-68
2022/10/16 12:29:54;;;;;;;;;;;15.60;99.90;;;;;;6188925;23;19920;-69
2022/10/16 12:32:29;;;;;;;;;;;15.70;99.90;;;;;;6187344;23;20301;-71
2022/10/16 12:35:06;;;;;;;;;;;15.60;99.90;;;;;;6212290;23;20319;-70
2022/10/16 12:39:05;;;;;;;;;;;15.60;99.90;;;;;;6186273;23;19947;-69
2022/10/16 12:41:39;;;;;;;;;;;15.70;99.90;;;;;;6183524;23;20397;-71
2022/10/16 12:44:05;;;;;;;;;;;15.60;99.90;;;;;;6133161;23;19919;-68
2022/10/16 12:46:39;;;;;;;;;;;15.50;99.90;;;;;;6159247;23;19986;-72
2022/10/16 12:49:21;;;;;;;;;;;15.50;99.90;;;;;;6158301;23;19943;-72
2022/10/16 12:51:46;;;;;;;;;;;15.50;99.90;;;;;;6159217;23;20251;-68
2022/10/16 12:54:12;;;;;;;;;;;15.50;99.90;;;;;;6306801;22;19914;-69
2022/10/16 12:56:43;;;;;;;;;;;15.40;99.90;;;;;;6281446;22;19922;-68
2022/10/16 12:59:27;;;;;;;;;;;15.40;99.90;;;;;;6308645;22;20332;-69
2022/10/16 13:02:11;;;;;;;;;;;15.50;99.90;;;;;;6280939;22;19936;-70
2022/10/16 13:04:43;;;;;;;;;;;15.40;99.90;;;;;;6255822;22;19915;-69
2022/10/16 13:07:20;;;;;;;;;;;15.40;99.90;;;;;;6281467;22;19925;-71
2022/10/16 13:09:55;;;;;;;;;;;15.30;99.90;;;;;;6255812;22;20302;-70
2022/10/16 13:12:39;;;;;;;;;;;15.30;99.90;;;;;;6308615;22;19969;-69
2022/10/16 13:15:14;;;;;;;;;;;15.20;99.90;;;;;;6281135;22;19915;-69
2022/10/16 13:17:59;;;;;;;;;;;15.20;99.90;;;;;;6255797;22;19982;-69
2022/10/16 13:20:27;;;;;;;;;;;15.20;99.90;;;;;;6281490;22;19915;-68
2022/10/16 13:22:53;;;;;;;;;;;15.20;99.90;;;;;;6255319;22;19921;-69
2022/10/16 13:25:19;;;;;;;;;;;15.10;99.90;;;;;;6308720;22;19918;-69
2022/10/16 13:45:13;;;;;;;;;;;;;;;;;;;;;
2022/10/16 13:48:06;;;;;;;;;;;14.80;99.90;;;;;;6304833;22;19919;-72
2022/10/16 13:50:34;;;;;;;;;;;14.70;99.90;;;;;;6255549;22;20001;-72
2022/10/16 13:53:07;;;;;;;;;;;14.70;99.90;;;;;;6280775;22;19911;-70
2022/10/16 13:55:32;;;;;;;;;;;14.70;99.90;;;;;;6281221;22;19918;-69
2022/10/16 13:58:08;;;;;;;;;;;14.70;99.90;;;;;;6308113;22;19915;-72
2022/10/16 14:00:35;;;;;;;;;;;14.60;99.90;;;;;;6281127;22;19915;-70
2022/10/16 14:03:12;;;;;;;;;;;14.60;99.90;;;;;;6255446;22;19919;-72
2022/10/16 14:05:46;;;;;;;;;;;14.60;99.90;;;;;;6281211;22;19922;-73
2022/10/16 14:08:12;;;;;;;;;;;14.60;99.90;;;;;;6280847;22;20268;-72
2022/10/16 14:10:38;;;;;;;;;;;14.60;99.90;;;;;;6280847;22;19918;-73
2022/10/16 14:13:05;;;;;;;;;;;14.60;99.90;;;;;;6255220;22;19911;-73
2022/10/16 14:15:32;;;;;;;;;;;14.60;99.90;;;;;;6255273;22;19911;-73
2022/10/16 14:17:58;;;;;;;;;;;14.60;99.90;;;;;;6280833;22;19919;-72
2022/10/16 14:20:26;;;;;;;;;;;14.60;99.90;;;;;;6280563;22;19922;-74
2022/10/16 14:23:03;;;;;;;;;;;14.60;99.90;;;;;;6255342;22;19918;-72
2022/10/16 14:25:30;;;;;;;;;;;14.60;99.90;;;;;;6255802;22;19915;-73
2022/10/16 14:28:04;;;;;;;;;;;14.50;99.90;;;;;;6280451;22;19914;-72
2022/10/16 14:30:31;;;;;;;;;;;14.50;99.90;;;;;;6281036;22;19915;-74
2022/10/16 14:33:17;;;;;;;;;;;14.50;99.90;;;;;;6280650;22;19957;-74
2022/10/16 14:35:43;;;;;;;;;;;14.50;99.90;;;;;;6281792;22;19968;-74
2022/10/16 14:38:19;;;;;;;;;;;14.50;99.90;;;;;;6256751;22;20419;-77
2022/10/16 14:40:51;;;;;;;;;;;14.40;99.90;;;;;;6257071;22;19918;-75
2022/10/16 14:43:31;;;;;;;;;;;14.40;99.90;;;;;;6256693;22;19911;-77
2022/10/16 14:46:04;;;;;;;;;;;14.40;99.90;;;;;;6258157;22;20279;-77
2022/10/16 14:55:32;;;;;;;;;;;14.30;99.90;;;;;;6278566;22;19950;-77
2022/10/16 14:58:06;;;;;;;;;;;14.30;99.90;;;;;;6277324;22;19919;-75
2022/10/16 15:00:53;;;;;;;;;;;14.30;99.90;;;;;;6276381;22;19911;-76
2022/10/16 15:03:31;;;;;;;;;;;14.20;99.90;;;;;;6279008;22;19999;-74
2022/10/16 15:06:03;;;;;;;;;;;14.20;99.90;;;;;;6252185;22;19918;-75
2022/10/16 15:08:31;;;;;;;;;;;14.20;99.90;;;;;;6277212;22;19963;-75
2022/10/16 15:11:02;;;;;;;;;;;14.20;99.90;;;;;;6277267;22;20318;-74
2022/10/16 15:13:28;;;;;;;;;;;14.20;99.90;;;;;;6276566;22;19925;-76
2022/10/16 15:15:58;;;;;;;;;;;14.20;99.90;;;;;;6251909;22;19915;-74
2022/10/16 15:18:33;;;;;;;;;;;14.10;99.90;;;;;;6251787;22;19915;-76
2022/10/16 15:21:22;;;;;;;;;;;14.10;99.90;;;;;;6276817;22;19918;-75
2022/10/16 15:23:58;;;;;;;;;;;14.10;99.90;;;;;;6253559;22;19915;-76
2022/10/16 15:26:35;;;;;;;;;;;14.10;99.90;;;;;;6251309;22;19926;-82
2022/10/16 15:39:25;;;;;;;;;;;14.00;99.90;;;;;;6278276;22;19918;-75
2022/10/16 15:42:44;;;;;;;;;;;14.00;99.90;;;;;;6276140;22;19912;-75
2022/10/16 15:49:48;;;;;;;;;;;;;;;;;;;;;
2022/10/16 16:37:38;;;;;;;;;;;12.70;99.90;;;;;;6239082;22;19968;31
2022/10/16 16:40:17;;;;;;;;;;;12.70;99.90;;;;;;6205109;23;20269;-73
2022/10/16 16:42:56;;;;;;;;;;;12.60;99.90;;;;;;6214685;23;19926;-74
2022/10/16 16:45:22;;;;;;;;;;;12.50;99.90;;;;;;6189966;23;19912;-71
2022/10/16 16:47:51;;;;;;;;;;;12.50;99.90;;;;;;6165554;23;20287;-75
2022/10/16 16:50:16;;;;;;;;;;;12.40;99.90;;;;;;6215193;23;19923;-75
2022/10/16 16:59:37;;;;;;;;;;;12.20;99.90;;;;;;6215601;23;19912;-76
2022/10/16 17:02:02;;;;;;;;;;;12.10;99.90;;;;;;6187683;23;19912;-71
2022/10/16 17:04:28;;;;;;;;;;;12.10;99.90;;;;;;6215888;23;19987;-71
2022/10/16 17:06:55;;;;;;;;;;;12.00;99.90;;;;;;6189400;23;19966;-74
2022/10/16 17:09:23;;;;;;;;;;;12.00;99.90;;;;;;6165206;23;20362;-72
2022/10/16 17:11:49;;;;;;;;;;;11.90;99.90;;;;;;6214909;23;19915;-73
2022/10/16 17:14:15;;;;;;;;;;;11.90;99.90;;;;;;6189959;23;20226;-73
2022/10/16 17:16:43;;;;;;;;;;;11.90;99.90;;;;;;6189433;23;20404;-71
2022/10/16 17:19:15;;;;;;;;;;;12.00;99.90;;;;;;6189463;23;19912;-72
2022/10/16 17:21:43;;;;;;;;;;;11.90;99.90;;;;;;6189723;23;19956;-75
2022/10/16 17:24:25;;;;;;;;;;;11.80;99.90;;;;;;6189360;23;19916;-76
2022/10/16 17:26:50;;;;;;;;;;;11.80;99.90;;;;;;6189856;23;19982;-78
2022/10/16 17:29:28;;;;;;;;;;;11.80;99.90;;;;;;6164759;23;20020;-75
2022/10/16 17:31:58;;;;;;;;;;;11.80;99.90;;;;;;6190087;23;19970;-77
2022/10/16 17:37:48;;;;;;;;;;;11.80;99.90;;;;;;6216725;22;19950;-75
2022/10/16 17:41:22;;;;;;;;;;;11.90;99.90;;;;;;6175334;23;19946;-76
2022/10/16 17:52:10;;;;;;;;;;;11.70;99.90;;;;;;6230495;22;19923;-73
